DELSA EDLW-

Flight info

Callsign DELSA
Flight time N/A
Altitude
Route
Aircraft DA42

Departure

Time 2026-05-07 16:45
Airport Dortmund Airport (EDLW)

Arrival

Time N/A
Airport -
Time Latitude Longitude Altitude Speed Heading
2026-05-07 16:37 51.51157 7.60196 439 ft 27 kts 277°
2026-05-07 16:38 51.51247 7.60304 431 ft 24 kts 59°
2026-05-07 16:38 51.51336 7.60560 438 ft 25 kts 60°
2026-05-07 16:38 51.51419 7.60794 424 ft 21 kts 59°
2026-05-07 16:38 51.51488 7.60993 429 ft 21 kts 59°
2026-05-07 16:39 51.51573 7.60978 424 ft 22 kts 258°
2026-05-07 16:39 51.51588 7.61053 426 ft 26 kts 70°
2026-05-07 16:39 51.51655 7.61262 422 ft 19 kts 60°
2026-05-07 16:39 51.51720 7.61448 422 ft 20 kts 61°
2026-05-07 16:40 51.51791 7.61646 421 ft 23 kts 60°
2026-05-07 16:40 51.51874 7.61881 414 ft 24 kts 60°
2026-05-07 16:40 51.51966 7.62142 412 ft 32 kts 60°
2026-05-07 16:40 51.52086 7.62411 411 ft 18 kts 343°
2026-05-07 16:41 51.52135 7.62359 413 ft 0 kts 329°
2026-05-07 16:43 51.52141 7.62353 413 ft 7 kts 331°
2026-05-07 16:43 51.52195 7.62249 413 ft 6 kts 242°
2026-05-07 16:44 51.52181 7.62211 413 ft 24 kts 240°
2026-05-07 16:44 51.51982 7.61645 412 ft 88 kts 241°
2026-05-07 16:44 51.51609 7.60585 458 ft 123 kts 239°
2026-05-07 16:44 51.51168 7.59375 782 ft 125 kts 238°
2026-05-07 16:45 51.50478 7.58840 1176 ft 115 kts 160°
2026-05-07 16:45 51.50007 7.59744 1555 ft 108 kts 94°
2026-05-07 16:45 51.50206 7.61008 1584 ft 131 kts 68°
2026-05-07 16:45 51.50606 7.62396 1633 ft 142 kts 60°
2026-05-07 16:46 51.51284 7.63615 1299 ft 165 kts 24°
2026-05-07 16:46 51.52418 7.63438 797 ft 189 kts 295°
2026-05-07 16:46 51.51862 7.61617 487 ft 187 kts 268°
2026-05-07 16:46 51.51260 7.60266 968 ft 140 kts 169°
2026-05-07 16:47 51.50495 7.60839 1584 ft 129 kts 122°
2026-05-07 16:47 51.50508 7.62350 1223 ft 156 kts 64°
2026-05-07 16:47 51.51148 7.63976 830 ft 177 kts 54°
2026-05-07 16:47 51.52168 7.64322 855 ft 151 kts 349°
2026-05-07 16:48 51.52925 7.63444 798 ft 133 kts 341°
2026-05-07 16:48 51.53065 7.64251 854 ft 151 kts 164°
2026-05-07 16:48 51.52129 7.63743 1315 ft 135 kts 174°
2026-05-07 16:48 51.51162 7.63904 1451 ft 149 kts 163°
2026-05-07 16:49 51.50958 7.63659 1422 ft 134 kts 96°
2026-05-07 16:49 51.50876 7.63709 1263 ft 129 kts 136°
2026-05-07 16:49 51.50789 7.63717 1244 ft 120 kts 165°
2026-05-07 16:49 51.50923 7.63525 1191 ft 125 kts 105°
2026-05-07 16:50 51.50494 7.62990 1051 ft 148 kts 336°
2026-05-07 16:50 51.51260 7.63841 1047 ft 152 kts 52°
2026-05-07 16:50 51.51825 7.65271 1222 ft 146 kts 61°
2026-05-07 16:50 51.52259 7.66109 1277 ft 148 kts 34°
2026-05-07 16:51 51.53440 7.66197 1814 ft 26 kts 277°
2026-05-07 16:51 51.53592 7.66083 715 ft 126 kts 307°
2026-05-07 16:51 51.53345 7.65349 923 ft 85 kts 229°
2026-05-07 16:51 51.53008 7.64546 899 ft 83 kts 241°
2026-05-07 16:52 51.52817 7.64012 802 ft 82 kts 242°
2026-05-07 16:52 51.52554 7.63263 622 ft 77 kts 240°
2026-05-07 16:52 51.52796 7.62967 600 ft 77 kts 78°
2026-05-07 16:52 51.52438 7.62891 611 ft 85 kts 241°
2026-05-07 16:53 51.52123 7.62045 425 ft 83 kts 239°
2026-05-07 16:53 51.51867 7.61319 414 ft 87 kts 240°
2026-05-07 16:53 51.51492 7.60443 745 ft 85 kts 208°
2026-05-07 16:53 51.50906 7.60495 1047 ft 96 kts 150°
2026-05-07 16:54 51.50309 7.60880 1625 ft 82 kts 147°
2026-05-07 16:54 51.50030 7.61512 2008 ft 79 kts 69°
2026-05-07 16:54 51.50335 7.62464 2190 ft 107 kts 59°
2026-05-07 16:54 51.50777 7.63562 2317 ft 126 kts 52°
2026-05-07 16:55 51.51272 7.64806 2441 ft 138 kts 60°
2026-05-07 16:55 51.51826 7.66117 2413 ft 150 kts 41°
2026-05-07 16:55 51.52820 7.66716 1909 ft 156 kts
2026-05-07 16:55 51.53691 7.66235 1666 ft 123 kts 294°
2026-05-07 16:56 51.53368 7.65308 1513 ft 99 kts 224°
2026-05-07 16:56 51.53055 7.64639 527 ft 113 kts 155°
2026-05-07 16:56 51.52495 7.63069 665 ft 86 kts 242°
2026-05-07 16:57 51.52190 7.62271 714 ft 77 kts 264°
2026-05-07 16:57 51.51907 7.61432 414 ft 75 kts 238°
2026-05-07 16:57 51.51692 7.60825 412 ft 52 kts 239°
2026-05-07 16:57 51.51563 7.60617 408 ft 18 kts 142°
2026-05-07 16:58 51.51528 7.60712 411 ft 0 kts 74°
2026-05-07 16:58 51.51529 7.60719 411 ft 4 kts 75°
2026-05-07 16:58 51.51548 7.60831 416 ft 16 kts 74°
2026-05-07 16:59 51.51574 7.61019 427 ft 18 kts 104°
2026-05-07 16:59 51.51491 7.60998 429 ft 16 kts 244°
2026-05-07 16:59 51.51430 7.60844 427 ft 17 kts 243°
2026-05-07 16:59 51.51376 7.60682 428 ft 14 kts 240°
2026-05-07 17:00 51.51335 7.60558 436 ft 12 kts 243°
2026-05-07 17:00 51.51288 7.60421 436 ft 16 kts 241°
2026-05-07 17:00 51.51222 7.60248 441 ft 19 kts 237°
2026-05-07 17:00 51.51168 7.60160 441 ft 12 kts 156°
2026-05-07 17:01 51.51179 7.60271 433 ft 11 kts 49°
2026-05-07 17:01 51.51225 7.60383 436 ft 13 kts 61°
2026-05-07 17:01 51.51217 7.60473 440 ft 0 kts 102°